sensor_id;sensor_type;location;lat;lon;timestamp;P1;durP1;ratioP1;P2;durP2;ratioP2
51184;SDS011;37248;59.350;18.050;2022-08-21T00:00:25;3.37;;;0.90;;
51184;SDS011;37248;59.350;18.050;2022-08-21T00:02:52;2.53;;;0.55;;
51184;SDS011;37248;59.350;18.050;2022-08-21T00:05:17;3.28;;;0.75;;
51184;SDS011;37248;59.350;18.050;2022-08-21T00:07:42;3.28;;;0.70;;
51184;SDS011;37248;59.350;18.050;2022-08-21T00:10:08;5.30;;;1.00;;
51184;SDS011;37248;59.350;18.050;2022-08-21T00:12:33;3.65;;;0.80;;
51184;SDS011;37248;59.350;18.050;2022-08-21T00:14:59;1.80;;;0.60;;
51184;SDS011;37248;59.350;18.050;2022-08-21T00:17:24;3.30;;;0.90;;
51184;SDS011;37248;59.350;18.050;2022-08-21T00:19:49;3.13;;;0.80;;
51184;SDS011;37248;59.350;18.050;2022-08-21T00:22:14;1.83;;;0.60;;
51184;SDS011;37248;59.350;18.050;2022-08-21T00:24:40;2.70;;;0.90;;
51184;SDS011;37248;59.350;18.050;2022-08-21T00:27:05;1.73;;;0.73;;
51184;SDS011;37248;59.350;18.050;2022-08-21T00:29:30;4.13;;;0.80;;
51184;SDS011;37248;59.350;18.050;2022-08-21T00:31:56;3.13;;;0.70;;
51184;SDS011;37248;59.350;18.050;2022-08-21T00:34:21;2.63;;;0.70;;
51184;SDS011;37248;59.350;18.050;2022-08-21T00:36:46;3.70;;;0.70;;
51184;SDS011;37248;59.350;18.050;2022-08-21T00:39:11;2.67;;;0.80;;
51184;SDS011;37248;59.350;18.050;2022-08-21T00:41:37;1.77;;;0.70;;
51184;SDS011;37248;59.350;18.050;2022-08-21T00:44:03;2.43;;;0.80;;
51184;SDS011;37248;59.350;18.050;2022-08-21T00:46:29;2.80;;;0.70;;
51184;SDS011;37248;59.350;18.050;2022-08-21T00:48:54;4.40;;;1.10;;
51184;SDS011;37248;59.350;18.050;2022-08-21T00:51:20;1.98;;;0.80;;
51184;SDS011;37248;59.350;18.050;2022-08-21T00:53:53;3.42;;;0.80;;
51184;SDS011;37248;59.350;18.050;2022-08-21T00:56:20;4.05;;;1.20;;
51184;SDS011;37248;59.350;18.050;2022-08-21T00:58:46;2.30;;;1.00;;
51184;SDS011;37248;59.350;18.050;2022-08-21T01:01:11;2.60;;;0.93;;
51184;SDS011;37248;59.350;18.050;2022-08-21T01:03:36;3.67;;;0.93;;
51184;SDS011;37248;59.350;18.050;2022-08-21T01:06:03;2.47;;;0.98;;
51184;SDS011;37248;59.350;18.050;2022-08-21T01:08:29;3.08;;;0.85;;
51184;SDS011;37248;59.350;18.050;2022-08-21T01:10:55;2.45;;;0.90;;
51184;SDS011;37248;59.350;18.050;2022-08-21T01:13:20;2.03;;;0.77;;
51184;SDS011;37248;59.350;18.050;2022-08-21T01:15:48;2.38;;;0.80;;
51184;SDS011;37248;59.350;18.050;2022-08-21T01:18:15;3.63;;;0.80;;
51184;SDS011;37248;59.350;18.050;2022-08-21T01:20:42;1.73;;;0.60;;
51184;SDS011;37248;59.350;18.050;2022-08-21T01:23:08;3.70;;;0.80;;
51184;SDS011;37248;59.350;18.050;2022-08-21T01:25:34;6.17;;;1.17;;
51184;SDS011;37248;59.350;18.050;2022-08-21T01:28:01;2.10;;;0.70;;
51184;SDS011;37248;59.350;18.050;2022-08-21T01:30:29;4.30;;;0.57;;
51184;SDS011;37248;59.350;18.050;2022-08-21T01:32:56;4.70;;;0.70;;
51184;SDS011;37248;59.350;18.050;2022-08-21T01:35:21;2.65;;;0.70;;
51184;SDS011;37248;59.350;18.050;2022-08-21T01:37:47;2.47;;;0.80;;
51184;SDS011;37248;59.350;18.050;2022-08-21T01:40:13;1.70;;;0.68;;
51184;SDS011;37248;59.350;18.050;2022-08-21T01:42:39;2.50;;;0.80;;
51184;SDS011;37248;59.350;18.050;2022-08-21T01:45:05;1.20;;;0.60;;
51184;SDS011;37248;59.350;18.050;2022-08-21T01:47:30;2.42;;;0.85;;
51184;SDS011;37248;59.350;18.050;2022-08-21T01:49:56;1.67;;;0.60;;
51184;SDS011;37248;59.350;18.050;2022-08-21T01:52:21;2.63;;;0.70;;
51184;SDS011;37248;59.350;18.050;2022-08-21T01:54:46;1.70;;;0.70;;
51184;SDS011;37248;59.350;18.050;2022-08-21T01:57:12;3.00;;;0.67;;
51184;SDS011;37248;59.350;18.050;2022-08-21T01:59:38;3.30;;;0.63;;
51184;SDS011;37248;59.350;18.050;2022-08-21T02:02:04;1.55;;;0.73;;
51184;SDS011;37248;59.350;18.050;2022-08-21T02:04:30;3.10;;;0.40;;
51184;SDS011;37248;59.350;18.050;2022-08-21T02:06:55;1.95;;;0.77;;
51184;SDS011;37248;59.350;18.050;2022-08-21T02:09:21;2.85;;;0.70;;
51184;SDS011;37248;59.350;18.050;2022-08-21T02:11:46;2.30;;;0.60;;
51184;SDS011;37248;59.350;18.050;2022-08-21T02:14:12;2.53;;;0.70;;
51184;SDS011;37248;59.350;18.050;2022-08-21T02:16:39;2.28;;;0.90;;
51184;SDS011;37248;59.350;18.050;2022-08-21T02:19:05;0.93;;;0.50;;
51184;SDS011;37248;59.350;18.050;2022-08-21T02:21:30;1.70;;;0.60;;
51184;SDS011;37248;59.350;18.050;2022-08-21T02:23:55;2.43;;;0.60;;
51184;SDS011;37248;59.350;18.050;2022-08-21T02:26:21;1.13;;;0.50;;
51184;SDS011;37248;59.350;18.050;2022-08-21T02:28:46;1.73;;;0.60;;
51184;SDS011;37248;59.350;18.050;2022-08-21T02:31:12;1.33;;;0.50;;
51184;SDS011;37248;59.350;18.050;2022-08-21T02:33:37;2.73;;;0.77;;
51184;SDS011;37248;59.350;18.050;2022-08-21T02:36:05;1.40;;;0.50;;
51184;SDS011;37248;59.350;18.050;2022-08-21T02:38:32;3.17;;;0.60;;
51184;SDS011;37248;59.350;18.050;2022-08-21T02:40:58;1.52;;;0.63;;
51184;SDS011;37248;59.350;18.050;2022-08-21T02:43:24;4.43;;;0.97;;
51184;SDS011;37248;59.350;18.050;2022-08-21T02:45:51;1.20;;;0.50;;
51184;SDS011;37248;59.350;18.050;2022-08-21T02:48:18;1.90;;;0.65;;
51184;SDS011;37248;59.350;18.050;2022-08-21T02:50:45;3.10;;;0.60;;
51184;SDS011;37248;59.350;18.050;2022-08-21T02:53:12;4.78;;;0.63;;
51184;SDS011;37248;59.350;18.050;2022-08-21T02:55:41;3.83;;;0.80;;
51184;SDS011;37248;59.350;18.050;2022-08-21T02:58:07;4.70;;;0.80;;
51184;SDS011;37248;59.350;18.050;2022-08-21T03:00:32;1.60;;;0.57;;
51184;SDS011;37248;59.350;18.050;2022-08-21T03:02:58;1.75;;;0.60;;
51184;SDS011;37248;59.350;18.050;2022-08-21T03:05:24;1.58;;;0.60;;
51184;SDS011;37248;59.350;18.050;2022-08-21T03:07:50;1.75;;;0.60;;
51184;SDS011;37248;59.350;18.050;2022-08-21T03:10:17;1.13;;;0.50;;
51184;SDS011;37248;59.350;18.050;2022-08-21T03:12:44;2.95;;;0.65;;
51184;SDS011;37248;59.350;18.050;2022-08-21T03:15:11;4.15;;;0.80;;
51184;SDS011;37248;59.350;18.050;2022-08-21T03:17:36;2.83;;;0.67;;
51184;SDS011;37248;59.350;18.050;2022-08-21T03:20:02;1.97;;;0.73;;
51184;SDS011;37248;59.350;18.050;2022-08-21T03:22:28;2.40;;;0.63;;
51184;SDS011;37248;59.350;18.050;2022-08-21T03:24:53;3.37;;;0.60;;
51184;SDS011;37248;59.350;18.050;2022-08-21T03:27:19;2.10;;;0.60;;
51184;SDS011;37248;59.350;18.050;2022-08-21T03:29:44;1.67;;;0.50;;
51184;SDS011;37248;59.350;18.050;2022-08-21T03:32:09;1.80;;;0.70;;
51184;SDS011;37248;59.350;18.050;2022-08-21T03:34:37;2.60;;;0.60;;
51184;SDS011;37248;59.350;18.050;2022-08-21T03:37:03;2.15;;;0.60;;
51184;SDS011;37248;59.350;18.050;2022-08-21T03:39:29;2.22;;;0.85;;
51184;SDS011;37248;59.350;18.050;2022-08-21T03:41:54;2.72;;;0.70;;
51184;SDS011;37248;59.350;18.050;2022-08-21T03:44:19;2.70;;;1.00;;
51184;SDS011;37248;59.350;18.050;2022-08-21T03:46:45;2.70;;;0.80;;
51184;SDS011;37248;59.350;18.050;2022-08-21T03:49:10;2.93;;;0.73;;
51184;SDS011;37248;59.350;18.050;2022-08-21T03:51:35;1.70;;;0.57;;
51184;SDS011;37248;59.350;18.050;2022-08-21T03:54:01;1.37;;;0.53;;
51184;SDS011;37248;59.350;18.050;2022-08-21T03:56:26;1.50;;;0.50;;
51184;SDS011;37248;59.350;18.050;2022-08-21T03:58:51;2.67;;;0.70;;
51184;SDS011;37248;59.350;18.050;2022-08-21T04:01:17;2.50;;;0.80;;
51184;SDS011;37248;59.350;18.050;2022-08-21T04:03:42;2.03;;;0.65;;
51184;SDS011;37248;59.350;18.050;2022-08-21T04:06:07;2.30;;;0.50;;
51184;SDS011;37248;59.350;18.050;2022-08-21T04:08:33;2.80;;;0.73;;
51184;SDS011;37248;59.350;18.050;2022-08-21T04:10:58;1.75;;;0.60;;
51184;SDS011;37248;59.350;18.050;2022-08-21T04:13:24;2.53;;;0.57;;
51184;SDS011;37248;59.350;18.050;2022-08-21T04:15:49;2.50;;;0.80;;
51184;SDS011;37248;59.350;18.050;2022-08-21T04:18:15;1.48;;;0.52;;
51184;SDS011;37248;59.350;18.050;2022-08-21T04:20:40;2.67;;;0.60;;
51184;SDS011;37248;59.350;18.050;2022-08-21T04:23:07;1.25;;;0.57;;
51184;SDS011;37248;59.350;18.050;2022-08-21T04:25:32;2.47;;;0.70;;
51184;SDS011;37248;59.350;18.050;2022-08-21T04:27:57;1.90;;;0.57;;
51184;SDS011;37248;59.350;18.050;2022-08-21T04:30:23;3.53;;;0.70;;
51184;SDS011;37248;59.350;18.050;2022-08-21T04:32:49;2.28;;;0.63;;
51184;SDS011;37248;59.350;18.050;2022-08-21T04:35:16;1.60;;;0.57;;
51184;SDS011;37248;59.350;18.050;2022-08-21T04:37:42;2.90;;;0.60;;
51184;SDS011;37248;59.350;18.050;2022-08-21T04:40:07;2.00;;;0.70;;
51184;SDS011;37248;59.350;18.050;2022-08-21T04:42:40;4.18;;;0.60;;
51184;SDS011;37248;59.350;18.050;2022-08-21T04:45:05;4.60;;;1.15;;
51184;SDS011;37248;59.350;18.050;2022-08-21T04:47:31;2.80;;;0.77;;
51184;SDS011;37248;59.350;18.050;2022-08-21T04:49:56;7.50;;;0.97;;
51184;SDS011;37248;59.350;18.050;2022-08-21T04:52:21;3.33;;;1.23;;
51184;SDS011;37248;59.350;18.050;2022-08-21T04:54:47;4.95;;;1.17;;
51184;SDS011;37248;59.350;18.050;2022-08-21T04:57:14;4.60;;;1.33;;
51184;SDS011;37248;59.350;18.050;2022-08-21T04:59:41;3.33;;;0.98;;
51184;SDS011;37248;59.350;18.050;2022-08-21T05:02:08;5.70;;;1.20;;
51184;SDS011;37248;59.350;18.050;2022-08-21T05:04:34;3.90;;;1.00;;
51184;SDS011;37248;59.350;18.050;2022-08-21T05:07:02;3.78;;;1.15;;
51184;SDS011;37248;59.350;18.050;2022-08-21T05:09:28;4.53;;;1.52;;
51184;SDS011;37248;59.350;18.050;2022-08-21T05:11:55;4.47;;;1.27;;
51184;SDS011;37248;59.350;18.050;2022-08-21T05:14:20;2.80;;;0.93;;
51184;SDS011;37248;59.350;18.050;2022-08-21T05:16:46;4.37;;;1.50;;
51184;SDS011;37248;59.350;18.050;2022-08-21T05:19:11;3.10;;;1.10;;
51184;SDS011;37248;59.350;18.050;2022-08-21T05:21:38;4.43;;;1.20;;
51184;SDS011;37248;59.350;18.050;2022-08-21T05:24:03;7.85;;;1.70;;
51184;SDS011;37248;59.350;18.050;2022-08-21T05:26:29;5.37;;;1.33;;
51184;SDS011;37248;59.350;18.050;2022-08-21T05:28:54;4.63;;;1.30;;
51184;SDS011;37248;59.350;18.050;2022-08-21T05:31:20;4.10;;;1.40;;
51184;SDS011;37248;59.350;18.050;2022-08-21T05:33:45;3.17;;;1.03;;
51184;SDS011;37248;59.350;18.050;2022-08-21T05:36:10;5.33;;;1.20;;
51184;SDS011;37248;59.350;18.050;2022-08-21T05:38:35;4.90;;;1.67;;
51184;SDS011;37248;59.350;18.050;2022-08-21T05:41:01;3.60;;;1.40;;
51184;SDS011;37248;59.350;18.050;2022-08-21T05:43:26;4.97;;;1.30;;
51184;SDS011;37248;59.350;18.050;2022-08-21T05:45:51;4.53;;;1.17;;
51184;SDS011;37248;59.350;18.050;2022-08-21T05:48:18;6.50;;;1.50;;
51184;SDS011;37248;59.350;18.050;2022-08-21T05:50:44;4.07;;;1.23;;
51184;SDS011;37248;59.350;18.050;2022-08-21T05:53:10;5.60;;;1.20;;
51184;SDS011;37248;59.350;18.050;2022-08-21T05:55:36;5.10;;;1.35;;
51184;SDS011;37248;59.350;18.050;2022-08-21T05:58:02;8.73;;;1.58;;
51184;SDS011;37248;59.350;18.050;2022-08-21T06:00:27;4.63;;;1.27;;
51184;SDS011;37248;59.350;18.050;2022-08-21T06:02:52;3.67;;;1.13;;
51184;SDS011;37248;59.350;18.050;2022-08-21T06:05:17;7.40;;;1.80;;
51184;SDS011;37248;59.350;18.050;2022-08-21T06:07:43;6.37;;;2.10;;
51184;SDS011;37248;59.350;18.050;2022-08-21T06:10:08;5.13;;;1.30;;
51184;SDS011;37248;59.350;18.050;2022-08-21T06:12:33;6.22;;;1.20;;
51184;SDS011;37248;59.350;18.050;2022-08-21T06:14:59;7.00;;;1.83;;
51184;SDS011;37248;59.350;18.050;2022-08-21T06:17:24;4.88;;;1.50;;
51184;SDS011;37248;59.350;18.050;2022-08-21T06:19:53;4.27;;;1.27;;
51184;SDS011;37248;59.350;18.050;2022-08-21T06:22:19;4.82;;;1.33;;
51184;SDS011;37248;59.350;18.050;2022-08-21T06:24:44;4.25;;;1.17;;
51184;SDS011;37248;59.350;18.050;2022-08-21T06:27:10;6.33;;;1.67;;
51184;SDS011;37248;59.350;18.050;2022-08-21T06:29:35;6.27;;;1.43;;
51184;SDS011;37248;59.350;18.050;2022-08-21T06:32:00;6.27;;;1.90;;
51184;SDS011;37248;59.350;18.050;2022-08-21T06:34:26;5.70;;;1.40;;
51184;SDS011;37248;59.350;18.050;2022-08-21T06:36:51;4.85;;;1.23;;
51184;SDS011;37248;59.350;18.050;2022-08-21T06:39:16;5.47;;;1.50;;
51184;SDS011;37248;59.350;18.050;2022-08-21T06:41:42;6.23;;;1.40;;
51184;SDS011;37248;59.350;18.050;2022-08-21T06:44:07;6.17;;;1.40;;
51184;SDS011;37248;59.350;18.050;2022-08-21T06:46:32;5.40;;;1.40;;
51184;SDS011;37248;59.350;18.050;2022-08-21T06:48:58;5.38;;;1.35;;
51184;SDS011;37248;59.350;18.050;2022-08-21T06:51:24;4.10;;;1.40;;
51184;SDS011;37248;59.350;18.050;2022-08-21T06:53:50;4.68;;;1.45;;
51184;SDS011;37248;59.350;18.050;2022-08-21T06:56:16;3.43;;;1.30;;
51184;SDS011;37248;59.350;18.050;2022-08-21T06:58:41;5.07;;;1.37;;
51184;SDS011;37248;59.350;18.050;2022-08-21T07:01:06;5.07;;;1.43;;
51184;SDS011;37248;59.350;18.050;2022-08-21T07:03:35;4.87;;;1.30;;
51184;SDS011;37248;59.350;18.050;2022-08-21T07:06:00;5.20;;;1.15;;
51184;SDS011;37248;59.350;18.050;2022-08-21T07:08:26;5.67;;;1.60;;
51184;SDS011;37248;59.350;18.050;2022-08-21T07:10:52;8.52;;;1.95;;
51184;SDS011;37248;59.350;18.050;2022-08-21T07:13:18;6.72;;;1.95;;
51184;SDS011;37248;59.350;18.050;2022-08-21T07:15:44;4.73;;;1.23;;
51184;SDS011;37248;59.350;18.050;2022-08-21T07:18:10;5.72;;;1.50;;
51184;SDS011;37248;59.350;18.050;2022-08-21T07:20:35;3.90;;;1.30;;
51184;SDS011;37248;59.350;18.050;2022-08-21T07:23:01;6.10;;;1.40;;
51184;SDS011;37248;59.350;18.050;2022-08-21T07:25:28;5.70;;;1.52;;
51184;SDS011;37248;59.350;18.050;2022-08-21T07:27:53;5.07;;;1.27;;
51184;SDS011;37248;59.350;18.050;2022-08-21T07:30:19;6.30;;;1.70;;
51184;SDS011;37248;59.350;18.050;2022-08-21T07:32:44;4.37;;;1.20;;
51184;SDS011;37248;59.350;18.050;2022-08-21T07:35:10;7.13;;;1.80;;
51184;SDS011;37248;59.350;18.050;2022-08-21T07:37:35;4.67;;;1.30;;
51184;SDS011;37248;59.350;18.050;2022-08-21T07:40:00;4.88;;;1.33;;
51184;SDS011;37248;59.350;18.050;2022-08-21T07:42:26;4.53;;;1.40;;
51184;SDS011;37248;59.350;18.050;2022-08-21T07:44:51;3.53;;;1.17;;
51184;SDS011;37248;59.350;18.050;2022-08-21T07:47:16;5.00;;;1.37;;
51184;SDS011;37248;59.350;18.050;2022-08-21T07:49:41;4.40;;;1.38;;
51184;SDS011;37248;59.350;18.050;2022-08-21T07:52:07;6.40;;;1.90;;
51184;SDS011;37248;59.350;18.050;2022-08-21T07:54:32;10.20;;;1.40;;
51184;SDS011;37248;59.350;18.050;2022-08-21T07:56:57;4.57;;;1.50;;
51184;SDS011;37248;59.350;18.050;2022-08-21T07:59:23;5.50;;;1.30;;
51184;SDS011;37248;59.350;18.050;2022-08-21T08:01:49;7.70;;;1.60;;
51184;SDS011;37248;59.350;18.050;2022-08-21T08:04:14;4.57;;;1.58;;
51184;SDS011;37248;59.350;18.050;2022-08-21T08:06:40;6.95;;;1.73;;
51184;SDS011;37248;59.350;18.050;2022-08-21T08:09:05;6.80;;;1.70;;
51184;SDS011;37248;59.350;18.050;2022-08-21T08:11:31;3.90;;;1.57;;
51184;SDS011;37248;59.350;18.050;2022-08-21T08:13:56;6.00;;;1.80;;
51184;SDS011;37248;59.350;18.050;2022-08-21T08:16:23;5.57;;;1.60;;
51184;SDS011;37248;59.350;18.050;2022-08-21T08:18:48;7.73;;;1.80;;
51184;SDS011;37248;59.350;18.050;2022-08-21T08:21:13;7.77;;;1.50;;
51184;SDS011;37248;59.350;18.050;2022-08-21T08:23:39;8.67;;;1.70;;
51184;SDS011;37248;59.350;18.050;2022-08-21T08:26:04;6.82;;;1.55;;
51184;SDS011;37248;59.350;18.050;2022-08-21T08:28:30;7.85;;;1.45;;
51184;SDS011;37248;59.350;18.050;2022-08-21T08:30:59;6.73;;;1.80;;
51184;SDS011;37248;59.350;18.050;2022-08-21T08:33:25;5.07;;;1.40;;
51184;SDS011;37248;59.350;18.050;2022-08-21T08:35:50;6.38;;;1.50;;
51184;SDS011;37248;59.350;18.050;2022-08-21T08:38:16;5.90;;;1.30;;
51184;SDS011;37248;59.350;18.050;2022-08-21T08:43:28;6.47;;;1.80;;
51184;SDS011;37248;59.350;18.050;2022-08-21T08:45:55;7.75;;;1.60;;
51184;SDS011;37248;59.350;18.050;2022-08-21T08:48:32;3.65;;;1.30;;
51184;SDS011;37248;59.350;18.050;2022-08-21T08:50:59;7.78;;;1.80;;
51184;SDS011;37248;59.350;18.050;2022-08-21T08:53:28;7.45;;;1.50;;
51184;SDS011;37248;59.350;18.050;2022-08-21T08:55:55;12.50;;;2.20;;
51184;SDS011;37248;59.350;18.050;2022-08-21T08:58:28;9.45;;;2.03;;
51184;SDS011;37248;59.350;18.050;2022-08-21T09:00:55;6.75;;;1.38;;
51184;SDS011;37248;59.350;18.050;2022-08-21T09:03:21;8.38;;;2.25;;
51184;SDS011;37248;59.350;18.050;2022-08-21T09:11:29;7.97;;;1.65;;
51184;SDS011;37248;59.350;18.050;2022-08-21T09:14:01;6.95;;;1.60;;
51184;SDS011;37248;59.350;18.050;2022-08-21T09:19:33;11.30;;;2.28;;
51184;SDS011;37248;59.350;18.050;2022-08-21T09:27:22;11.77;;;1.85;;
51184;SDS011;37248;59.350;18.050;2022-08-21T09:29:49;9.35;;;2.00;;
51184;SDS011;37248;59.350;18.050;2022-08-21T09:34:53;7.00;;;1.17;;
51184;SDS011;37248;59.350;18.050;2022-08-21T09:37:19;8.95;;;1.42;;
51184;SDS011;37248;59.350;18.050;2022-08-21T09:39:44;6.00;;;1.80;;
51184;SDS011;37248;59.350;18.050;2022-08-21T09:42:10;6.65;;;1.92;;
51184;SDS011;37248;59.350;18.050;2022-08-21T09:44:37;7.30;;;2.03;;
51184;SDS011;37248;59.350;18.050;2022-08-21T09:47:05;13.45;;;2.20;;
51184;SDS011;37248;59.350;18.050;2022-08-21T09:49:31;5.27;;;1.93;;
51184;SDS011;37248;59.350;18.050;2022-08-21T09:51:57;10.38;;;2.25;;
51184;SDS011;37248;59.350;18.050;2022-08-21T09:54:26;5.85;;;2.65;;
51184;SDS011;37248;59.350;18.050;2022-08-21T09:56:56;8.00;;;3.00;;
51184;SDS011;37248;59.350;18.050;2022-08-21T09:59:41;8.48;;;2.58;;
51184;SDS011;37248;59.350;18.050;2022-08-21T10:02:21;11.00;;;2.70;;
51184;SDS011;37248;59.350;18.050;2022-08-21T10:04:51;7.88;;;2.55;;
51184;SDS011;37248;59.350;18.050;2022-08-21T10:07:19;7.93;;;2.95;;
51184;SDS011;37248;59.350;18.050;2022-08-21T10:09:44;9.23;;;5.23;;
51184;SDS011;37248;59.350;18.050;2022-08-21T10:12:58;12.50;;;5.57;;
51184;SDS011;37248;59.350;18.050;2022-08-21T10:24:58;6.53;;;2.70;;
51184;SDS011;37248;59.350;18.050;2022-08-21T10:30:12;5.87;;;2.53;;
51184;SDS011;37248;59.350;18.050;2022-08-21T10:35:14;6.57;;;2.20;;
51184;SDS011;37248;59.350;18.050;2022-08-21T10:37:56;5.83;;;2.10;;
51184;SDS011;37248;59.350;18.050;2022-08-21T10:40:29;5.60;;;1.80;;
51184;SDS011;37248;59.350;18.050;2022-08-21T10:45:30;7.38;;;1.75;;
51184;SDS011;37248;59.350;18.050;2022-08-21T10:48:00;4.65;;;1.70;;
51184;SDS011;37248;59.350;18.050;2022-08-21T10:50:30;5.97;;;1.55;;
51184;SDS011;37248;59.350;18.050;2022-08-21T10:55:22;4.77;;;1.27;;
51184;SDS011;37248;59.350;18.050;2022-08-21T10:57:52;6.73;;;1.33;;
51184;SDS011;37248;59.350;18.050;2022-08-21T11:00:23;24.92;;;2.25;;
51184;SDS011;37248;59.350;18.050;2022-08-21T11:03:02;77.82;;;7.07;;
51184;SDS011;37248;59.350;18.050;2022-08-21T11:05:39;33.25;;;4.00;;
51184;SDS011;37248;59.350;18.050;2022-08-21T11:10:38;20.97;;;8.93;;
51184;SDS011;37248;59.350;18.050;2022-08-21T11:13:11;20.40;;;9.93;;
51184;SDS011;37248;59.350;18.050;2022-08-21T11:15:45;22.20;;;8.07;;
51184;SDS011;37248;59.350;18.050;2022-08-21T11:21:02;13.88;;;6.45;;
51184;SDS011;37248;59.350;18.050;2022-08-21T11:23:41;14.25;;;5.65;;
51184;SDS011;37248;59.350;18.050;2022-08-21T11:26:10;14.30;;;5.45;;
51184;SDS011;37248;59.350;18.050;2022-08-21T11:28:41;18.75;;;4.97;;
51184;SDS011;37248;59.350;18.050;2022-08-21T11:39:01;16.85;;;8.15;;
51184;SDS011;37248;59.350;18.050;2022-08-21T11:44:04;19.90;;;10.07;;
51184;SDS011;37248;59.350;18.050;2022-08-21T11:47:06;18.00;;;10.52;;
51184;SDS011;37248;59.350;18.050;2022-08-21T11:49:33;19.33;;;9.98;;
51184;SDS011;37248;59.350;18.050;2022-08-21T11:55:07;20.38;;;8.82;;
51184;SDS011;37248;59.350;18.050;2022-08-21T12:02:33;18.27;;;8.85;;
51184;SDS011;37248;59.350;18.050;2022-08-21T12:05:00;16.83;;;9.63;;
51184;SDS011;37248;59.350;18.050;2022-08-21T12:07:31;14.80;;;8.40;;
51184;SDS011;37248;59.350;18.050;2022-08-21T12:09:57;16.42;;;8.02;;
51184;SDS011;37248;59.350;18.050;2022-08-21T12:14:49;13.73;;;6.73;;
51184;SDS011;37248;59.350;18.050;2022-08-21T12:17:18;15.13;;;7.18;;
51184;SDS011;37248;59.350;18.050;2022-08-21T12:19:44;13.80;;;7.90;;
51184;SDS011;37248;59.350;18.050;2022-08-21T12:22:11;14.43;;;7.43;;
51184;SDS011;37248;59.350;18.050;2022-08-21T12:24:37;12.00;;;6.97;;
51184;SDS011;37248;59.350;18.050;2022-08-21T12:30:00;12.25;;;6.68;;
51184;SDS011;37248;59.350;18.050;2022-08-21T12:40:01;12.13;;;6.57;;
51184;SDS011;37248;59.350;18.050;2022-08-21T12:45:00;11.20;;;6.50;;
51184;SDS011;37248;59.350;18.050;2022-08-21T12:47:34;10.27;;;6.38;;
51184;SDS011;37248;59.350;18.050;2022-08-21T12:52:32;13.70;;;6.73;;
51184;SDS011;37248;59.350;18.050;2022-08-21T12:54:58;12.10;;;6.30;;
51184;SDS011;37248;59.350;18.050;2022-08-21T12:57:27;16.20;;;6.03;;
51184;SDS011;37248;59.350;18.050;2022-08-21T12:59:57;9.40;;;5.68;;
51184;SDS011;37248;59.350;18.050;2022-08-21T13:02:25;10.43;;;6.15;;
51184;SDS011;37248;59.350;18.050;2022-08-21T13:04:51;9.63;;;5.47;;
51184;SDS011;37248;59.350;18.050;2022-08-21T13:07:28;11.93;;;6.03;;
51184;SDS011;37248;59.350;18.050;2022-08-21T13:09:57;9.10;;;5.40;;
51184;SDS011;37248;59.350;18.050;2022-08-21T13:12:23;10.23;;;5.57;;
51184;SDS011;37248;59.350;18.050;2022-08-21T13:14:49;9.05;;;5.22;;
51184;SDS011;37248;59.350;18.050;2022-08-21T13:17:24;11.45;;;5.82;;
51184;SDS011;37248;59.350;18.050;2022-08-21T13:19:59;8.70;;;4.93;;
51184;SDS011;37248;59.350;18.050;2022-08-21T13:22:25;8.25;;;5.30;;
51184;SDS011;37248;59.350;18.050;2022-08-21T13:24:51;10.50;;;5.70;;
51184;SDS011;37248;59.350;18.050;2022-08-21T13:29:45;9.77;;;4.95;;
51184;SDS011;37248;59.350;18.050;2022-08-21T13:32:16;9.52;;;5.60;;
51184;SDS011;37248;59.350;18.050;2022-08-21T13:34:43;7.82;;;4.63;;
51184;SDS011;37248;59.350;18.050;2022-08-21T13:37:08;24.13;;;5.03;;
51184;SDS011;37248;59.350;18.050;2022-08-21T13:39:36;10.52;;;4.82;;
51184;SDS011;37248;59.350;18.050;2022-08-21T13:42:03;10.85;;;4.90;;
51184;SDS011;37248;59.350;18.050;2022-08-21T13:46:56;13.73;;;4.30;;
51184;SDS011;37248;59.350;18.050;2022-08-21T13:49:25;16.95;;;4.75;;
51184;SDS011;37248;59.350;18.050;2022-08-21T13:51:51;14.18;;;4.10;;
51184;SDS011;37248;59.350;18.050;2022-08-21T13:54:27;11.20;;;3.45;;
51184;SDS011;37248;59.350;18.050;2022-08-21T13:56:54;7.30;;;3.43;;
51184;SDS011;37248;59.350;18.050;2022-08-21T13:59:23;6.63;;;3.03;;
51184;SDS011;37248;59.350;18.050;2022-08-21T14:01:51;9.48;;;3.00;;
51184;SDS011;37248;59.350;18.050;2022-08-21T14:04:23;6.78;;;2.50;;
51184;SDS011;37248;59.350;18.050;2022-08-21T14:06:49;10.40;;;2.75;;
51184;SDS011;37248;59.350;18.050;2022-08-21T14:11:53;7.70;;;2.75;;
51184;SDS011;37248;59.350;18.050;2022-08-21T14:16:45;9.60;;;2.63;;
51184;SDS011;37248;59.350;18.050;2022-08-21T14:19:18;4.90;;;2.60;;
51184;SDS011;37248;59.350;18.050;2022-08-21T14:21:44;8.32;;;2.75;;
51184;SDS011;37248;59.350;18.050;2022-08-21T14:24:12;4.97;;;2.20;;
51184;SDS011;37248;59.350;18.050;2022-08-21T14:26:45;5.28;;;2.33;;
51184;SDS011;37248;59.350;18.050;2022-08-21T14:29:12;3.22;;;1.92;;
51184;SDS011;37248;59.350;18.050;2022-08-21T14:31:38;4.50;;;2.13;;
51184;SDS011;37248;59.350;18.050;2022-08-21T14:34:03;4.30;;;2.00;;
51184;SDS011;37248;59.350;18.050;2022-08-21T14:36:28;3.67;;;2.10;;
51184;SDS011;37248;59.350;18.050;2022-08-21T14:38:54;3.47;;;1.80;;
51184;SDS011;37248;59.350;18.050;2022-08-21T14:41:20;2.43;;;1.37;;
51184;SDS011;37248;59.350;18.050;2022-08-21T14:43:47;5.60;;;1.60;;
51184;SDS011;37248;59.350;18.050;2022-08-21T14:46:13;3.87;;;1.60;;
51184;SDS011;37248;59.350;18.050;2022-08-21T14:48:41;2.83;;;1.52;;
51184;SDS011;37248;59.350;18.050;2022-08-21T14:51:07;6.83;;;1.80;;
51184;SDS011;37248;59.350;18.050;2022-08-21T14:53:33;2.77;;;1.40;;
51184;SDS011;37248;59.350;18.050;2022-08-21T14:55:58;4.20;;;1.60;;
51184;SDS011;37248;59.350;18.050;2022-08-21T14:58:30;2.87;;;1.20;;
51184;SDS011;37248;59.350;18.050;2022-08-21T15:00:56;7.60;;;1.70;;
51184;SDS011;37248;59.350;18.050;2022-08-21T15:03:23;4.63;;;1.43;;
51184;SDS011;37248;59.350;18.050;2022-08-21T15:05:48;8.43;;;1.80;;
51184;SDS011;37248;59.350;18.050;2022-08-21T15:08:14;6.53;;;1.80;;
51184;SDS011;37248;59.350;18.050;2022-08-21T15:10:39;5.22;;;1.60;;
51184;SDS011;37248;59.350;18.050;2022-08-21T15:13:05;4.20;;;1.63;;
51184;SDS011;37248;59.350;18.050;2022-08-21T15:15:32;15.10;;;1.70;;
51184;SDS011;37248;59.350;18.050;2022-08-21T15:17:59;5.18;;;1.50;;
51184;SDS011;37248;59.350;18.050;2022-08-21T15:20:24;7.20;;;2.03;;
51184;SDS011;37248;59.350;18.050;2022-08-21T15:22:49;6.53;;;1.47;;
51184;SDS011;37248;59.350;18.050;2022-08-21T15:25:14;9.63;;;2.10;;
51184;SDS011;37248;59.350;18.050;2022-08-21T15:27:41;9.07;;;1.97;;
51184;SDS011;37248;59.350;18.050;2022-08-21T15:30:07;11.20;;;2.27;;
51184;SDS011;37248;59.350;18.050;2022-08-21T15:32:32;5.05;;;2.15;;
51184;SDS011;37248;59.350;18.050;2022-08-21T15:34:58;8.13;;;2.13;;
51184;SDS011;37248;59.350;18.050;2022-08-21T15:37:23;10.50;;;2.33;;
51184;SDS011;37248;59.350;18.050;2022-08-21T15:39:49;9.10;;;3.00;;
51184;SDS011;37248;59.350;18.050;2022-08-21T15:42:14;10.90;;;2.28;;
51184;SDS011;37248;59.350;18.050;2022-08-21T15:44:40;8.00;;;2.70;;
51184;SDS011;37248;59.350;18.050;2022-08-21T15:47:07;8.60;;;2.70;;
51184;SDS011;37248;59.350;18.050;2022-08-21T15:49:34;6.28;;;2.28;;
51184;SDS011;37248;59.350;18.050;2022-08-21T15:52:00;10.43;;;2.83;;
51184;SDS011;37248;59.350;18.050;2022-08-21T15:54:25;9.57;;;2.23;;
51184;SDS011;37248;59.350;18.050;2022-08-21T15:56:50;9.67;;;2.30;;
51184;SDS011;37248;59.350;18.050;2022-08-21T15:59:19;10.13;;;2.60;;
51184;SDS011;37248;59.350;18.050;2022-08-21T16:01:47;8.00;;;1.98;;